sensor_id;sensor_type;location;lat;lon;timestamp;temperature;humidity
4505;DHT22;2265;48.794;9.520;2023-10-09T00:01:25;13.10;98.00
4505;DHT22;2265;48.794;9.520;2023-10-09T00:03:54;13.00;98.00
4505;DHT22;2265;48.794;9.520;2023-10-09T00:06:22;12.90;98.00
4505;DHT22;2265;48.794;9.520;2023-10-09T00:09:03;13.00;98.00
4505;DHT22;2265;48.794;9.520;2023-10-09T00:11:42;13.00;98.00
4505;DHT22;2265;48.794;9.520;2023-10-09T00:14:10;13.00;98.00
4505;DHT22;2265;48.794;9.520;2023-10-09T00:16:37;13.10;98.00
4505;DHT22;2265;48.794;9.520;2023-10-09T00:19:14;12.90;98.00
4505;DHT22;2265;48.794;9.520;2023-10-09T00:21:46;12.70;98.00
4505;DHT22;2265;48.794;9.520;2023-10-09T00:24:14;12.60;98.00
4505;DHT22;2265;48.794;9.520;2023-10-09T00:26:50;12.50;98.00
4505;DHT22;2265;48.794;9.520;2023-10-09T00:29:23;12.40;98.00
4505;DHT22;2265;48.794;9.520;2023-10-09T00:31:54;12.40;98.00
4505;DHT22;2265;48.794;9.520;2023-10-09T00:34:30;12.30;98.00
4505;DHT22;2265;48.794;9.520;2023-10-09T00:37:05;12.40;98.00
4505;DHT22;2265;48.794;9.520;2023-10-09T00:39:36;12.60;98.00
4505;DHT22;2265;48.794;9.520;2023-10-09T00:42:09;12.50;98.00
4505;DHT22;2265;48.794;9.520;2023-10-09T00:44:40;12.50;98.00
4505;DHT22;2265;48.794;9.520;2023-10-09T00:47:08;12.40;98.00
4505;DHT22;2265;48.794;9.520;2023-10-09T00:49:52;12.60;98.00
4505;DHT22;2265;48.794;9.520;2023-10-09T00:52:26;12.60;98.00
4505;DHT22;2265;48.794;9.520;2023-10-09T00:55:07;12.50;98.00
4505;DHT22;2265;48.794;9.520;2023-10-09T00:57:41;12.50;98.00
4505;DHT22;2265;48.794;9.520;2023-10-09T01:00:13;12.50;98.00
4505;DHT22;2265;48.794;9.520;2023-10-09T01:02:58;12.50;98.00
4505;DHT22;2265;48.794;9.520;2023-10-09T01:05:46;12.60;98.00
4505;DHT22;2265;48.794;9.520;2023-10-09T01:08:22;12.60;98.00
4505;DHT22;2265;48.794;9.520;2023-10-09T01:10:56;12.70;98.00
4505;DHT22;2265;48.794;9.520;2023-10-09T01:13:25;12.70;98.00
4505;DHT22;2265;48.794;9.520;2023-10-09T01:16:06;12.60;98.00
4505;DHT22;2265;48.794;9.520;2023-10-09T01:18:38;12.70;98.00
4505;DHT22;2265;48.794;9.520;2023-10-09T01:21:10;12.80;98.00
4505;DHT22;2265;48.794;9.520;2023-10-09T01:23:41;12.90;98.00
4505;DHT22;2265;48.794;9.520;2023-10-09T01:26:28;13.00;98.00
4505;DHT22;2265;48.794;9.520;2023-10-09T01:28:58;12.90;98.00
4505;DHT22;2265;48.794;9.520;2023-10-09T01:31:26;13.10;98.00
4505;DHT22;2265;48.794;9.520;2023-10-09T01:33:53;13.20;98.00
4505;DHT22;2265;48.794;9.520;2023-10-09T01:36:25;13.20;98.00
4505;DHT22;2265;48.794;9.520;2023-10-09T01:38:59;13.30;98.00
4505;DHT22;2265;48.794;9.520;2023-10-09T01:41:28;13.10;98.00
4505;DHT22;2265;48.794;9.520;2023-10-09T01:43:59;13.10;98.00
4505;DHT22;2265;48.794;9.520;2023-10-09T01:46:36;13.00;98.00
4505;DHT22;2265;48.794;9.520;2023-10-09T01:49:03;13.10;98.00
4505;DHT22;2265;48.794;9.520;2023-10-09T01:51:39;13.20;98.00
4505;DHT22;2265;48.794;9.520;2023-10-09T01:54:07;13.20;98.00
4505;DHT22;2265;48.794;9.520;2023-10-09T01:56:42;13.40;98.00
4505;DHT22;2265;48.794;9.520;2023-10-09T01:59:12;13.30;98.00
4505;DHT22;2265;48.794;9.520;2023-10-09T02:01:41;13.40;98.00
4505;DHT22;2265;48.794;9.520;2023-10-09T02:04:13;13.30;98.00
4505;DHT22;2265;48.794;9.520;2023-10-09T02:06:49;13.30;98.00
4505;DHT22;2265;48.794;9.520;2023-10-09T02:09:19;13.30;98.00
4505;DHT22;2265;48.794;9.520;2023-10-09T02:11:56;13.30;98.00
4505;DHT22;2265;48.794;9.520;2023-10-09T02:14:23;13.20;98.00
4505;DHT22;2265;48.794;9.520;2023-10-09T02:16:50;13.30;98.00
4505;DHT22;2265;48.794;9.520;2023-10-09T02:19:31;13.20;98.00
4505;DHT22;2265;48.794;9.520;2023-10-09T02:22:00;13.30;98.00
4505;DHT22;2265;48.794;9.520;2023-10-09T02:24:39;13.30;98.00
4505;DHT22;2265;48.794;9.520;2023-10-09T02:27:19;13.20;98.00
4505;DHT22;2265;48.794;9.520;2023-10-09T02:30:05;13.20;98.00
4505;DHT22;2265;48.794;9.520;2023-10-09T02:32:42;13.30;98.00
4505;DHT22;2265;48.794;9.520;2023-10-09T02:35:10;13.30;98.00
4505;DHT22;2265;48.794;9.520;2023-10-09T02:37:46;13.20;98.00
4505;DHT22;2265;48.794;9.520;2023-10-09T02:40:15;13.20;98.00
4505;DHT22;2265;48.794;9.520;2023-10-09T02:42:57;13.40;98.00
4505;DHT22;2265;48.794;9.520;2023-10-09T02:45:24;13.30;98.00
4505;DHT22;2265;48.794;9.520;2023-10-09T02:47:58;13.40;98.00
4505;DHT22;2265;48.794;9.520;2023-10-09T02:50:25;13.40;98.00
4505;DHT22;2265;48.794;9.520;2023-10-09T02:52:54;13.30;98.00
4505;DHT22;2265;48.794;9.520;2023-10-09T02:55:35;13.10;98.00
4505;DHT22;2265;48.794;9.520;2023-10-09T02:58:04;12.90;98.00
4505;DHT22;2265;48.794;9.520;2023-10-09T03:00:33;12.90;98.00
4505;DHT22;2265;48.794;9.520;2023-10-09T03:03:03;12.90;98.00
4505;DHT22;2265;48.794;9.520;2023-10-09T03:05:33;12.90;98.00
4505;DHT22;2265;48.794;9.520;2023-10-09T03:08:00;12.90;98.00
4505;DHT22;2265;48.794;9.520;2023-10-09T03:10:28;12.90;98.00
4505;DHT22;2265;48.794;9.520;2023-10-09T03:12:56;12.90;98.00
4505;DHT22;2265;48.794;9.520;2023-10-09T03:15:26;13.00;98.00
4505;DHT22;2265;48.794;9.520;2023-10-09T03:17:55;13.20;98.00
4505;DHT22;2265;48.794;9.520;2023-10-09T03:20:24;13.20;98.00
4505;DHT22;2265;48.794;9.520;2023-10-09T03:22:52;13.20;98.00
4505;DHT22;2265;48.794;9.520;2023-10-09T03:25:19;13.10;98.00
4505;DHT22;2265;48.794;9.520;2023-10-09T03:27:46;13.00;98.00
4505;DHT22;2265;48.794;9.520;2023-10-09T03:30:16;13.00;98.00
4505;DHT22;2265;48.794;9.520;2023-10-09T03:32:48;13.00;98.00
4505;DHT22;2265;48.794;9.520;2023-10-09T03:35:17;13.10;98.00
4505;DHT22;2265;48.794;9.520;2023-10-09T03:37:51;13.10;98.00
4505;DHT22;2265;48.794;9.520;2023-10-09T03:40:24;13.10;98.00
4505;DHT22;2265;48.794;9.520;2023-10-09T03:42:51;13.10;98.00
4505;DHT22;2265;48.794;9.520;2023-10-09T03:45:20;13.10;98.00
4505;DHT22;2265;48.794;9.520;2023-10-09T03:47:53;13.10;98.00
4505;DHT22;2265;48.794;9.520;2023-10-09T03:50:27;12.90;98.00
4505;DHT22;2265;48.794;9.520;2023-10-09T03:53:03;12.90;98.00
4505;DHT22;2265;48.794;9.520;2023-10-09T03:55:34;12.80;98.00
4505;DHT22;2265;48.794;9.520;2023-10-09T03:58:04;12.80;98.00
4505;DHT22;2265;48.794;9.520;2023-10-09T04:00:33;12.90;98.00
4505;DHT22;2265;48.794;9.520;2023-10-09T04:03:11;13.00;98.00
4505;DHT22;2265;48.794;9.520;2023-10-09T04:05:40;13.10;98.00
4505;DHT22;2265;48.794;9.520;2023-10-09T04:08:09;13.20;98.00
4505;DHT22;2265;48.794;9.520;2023-10-09T04:10:39;13.20;98.00
4505;DHT22;2265;48.794;9.520;2023-10-09T04:13:18;13.00;98.00
4505;DHT22;2265;48.794;9.520;2023-10-09T04:15:50;13.00;98.00
4505;DHT22;2265;48.794;9.520;2023-10-09T04:18:20;13.10;98.00
4505;DHT22;2265;48.794;9.520;2023-10-09T04:20:55;13.10;98.00
4505;DHT22;2265;48.794;9.520;2023-10-09T04:23:39;13.00;98.00
4505;DHT22;2265;48.794;9.520;2023-10-09T04:26:21;12.90;98.00
4505;DHT22;2265;48.794;9.520;2023-10-09T04:28:50;12.90;98.00
4505;DHT22;2265;48.794;9.520;2023-10-09T04:31:20;12.80;98.00
4505;DHT22;2265;48.794;9.520;2023-10-09T04:33:57;12.90;98.00
4505;DHT22;2265;48.794;9.520;2023-10-09T04:36:47;12.80;98.00
4505;DHT22;2265;48.794;9.520;2023-10-09T04:39:16;12.80;98.00
4505;DHT22;2265;48.794;9.520;2023-10-09T04:42:01;12.60;98.00
4505;DHT22;2265;48.794;9.520;2023-10-09T04:45:02;12.70;98.00
4505;DHT22;2265;48.794;9.520;2023-10-09T04:48:03;12.70;98.00
4505;DHT22;2265;48.794;9.520;2023-10-09T04:50:34;12.70;98.00
4505;DHT22;2265;48.794;9.520;2023-10-09T04:53:31;12.70;98.00
4505;DHT22;2265;48.794;9.520;2023-10-09T04:56:05;12.80;98.00
4505;DHT22;2265;48.794;9.520;2023-10-09T04:58:41;12.70;98.00
4505;DHT22;2265;48.794;9.520;2023-10-09T05:01:09;12.70;98.00
4505;DHT22;2265;48.794;9.520;2023-10-09T05:03:43;12.80;98.00
4505;DHT22;2265;48.794;9.520;2023-10-09T05:06:09;12.80;98.00
4505;DHT22;2265;48.794;9.520;2023-10-09T05:09:09;12.70;98.00
4505;DHT22;2265;48.794;9.520;2023-10-09T05:11:38;12.60;98.00
4505;DHT22;2265;48.794;9.520;2023-10-09T05:14:25;12.70;98.00
4505;DHT22;2265;48.794;9.520;2023-10-09T05:17:05;12.70;98.00
4505;DHT22;2265;48.794;9.520;2023-10-09T05:19:37;12.60;98.00
4505;DHT22;2265;48.794;9.520;2023-10-09T05:22:20;12.70;98.00
4505;DHT22;2265;48.794;9.520;2023-10-09T05:24:56;12.80;98.00
4505;DHT22;2265;48.794;9.520;2023-10-09T05:27:26;12.90;98.00
4505;DHT22;2265;48.794;9.520;2023-10-09T05:30:08;13.00;98.00
4505;DHT22;2265;48.794;9.520;2023-10-09T05:32:59;13.00;98.00
4505;DHT22;2265;48.794;9.520;2023-10-09T05:35:48;13.00;98.00
4505;DHT22;2265;48.794;9.520;2023-10-09T05:38:31;13.00;98.00
4505;DHT22;2265;48.794;9.520;2023-10-09T05:41:01;12.80;98.00
4505;DHT22;2265;48.794;9.520;2023-10-09T05:43:50;12.80;98.00
4505;DHT22;2265;48.794;9.520;2023-10-09T05:46:40;12.90;98.00
4505;DHT22;2265;48.794;9.520;2023-10-09T05:49:29;13.00;98.00
4505;DHT22;2265;48.794;9.520;2023-10-09T05:52:13;13.00;98.00
4505;DHT22;2265;48.794;9.520;2023-10-09T05:55:19;13.10;98.00
4505;DHT22;2265;48.794;9.520;2023-10-09T05:58:06;13.10;98.00
4505;DHT22;2265;48.794;9.520;2023-10-09T06:00:53;13.20;98.00
4505;DHT22;2265;48.794;9.520;2023-10-09T06:03:53;13.20;98.00
4505;DHT22;2265;48.794;9.520;2023-10-09T06:06:30;13.20;98.00
4505;DHT22;2265;48.794;9.520;2023-10-09T06:09:06;13.30;98.00
4505;DHT22;2265;48.794;9.520;2023-10-09T06:11:50;13.30;98.00
4505;DHT22;2265;48.794;9.520;2023-10-09T06:14:38;13.30;98.00
4505;DHT22;2265;48.794;9.520;2023-10-09T06:17:24;13.30;98.00
4505;DHT22;2265;48.794;9.520;2023-10-09T06:20:09;13.40;98.00
4505;DHT22;2265;48.794;9.520;2023-10-09T06:23:09;13.60;98.00
4505;DHT22;2265;48.794;9.520;2023-10-09T06:25:44;13.60;98.00
4505;DHT22;2265;48.794;9.520;2023-10-09T06:28:17;13.70;98.00
4505;DHT22;2265;48.794;9.520;2023-10-09T06:30:58;13.60;98.00
4505;DHT22;2265;48.794;9.520;2023-10-09T06:33:45;13.50;98.00
4505;DHT22;2265;48.794;9.520;2023-10-09T06:36:33;13.50;98.00
4505;DHT22;2265;48.794;9.520;2023-10-09T06:38:59;13.40;98.00
4505;DHT22;2265;48.794;9.520;2023-10-09T06:41:42;13.60;98.00
4505;DHT22;2265;48.794;9.520;2023-10-09T06:44:13;13.60;98.00
4505;DHT22;2265;48.794;9.520;2023-10-09T06:47:00;13.80;98.00
4505;DHT22;2265;48.794;9.520;2023-10-09T06:49:33;13.80;98.00
4505;DHT22;2265;48.794;9.520;2023-10-09T06:52:02;13.80;98.00
4505;DHT22;2265;48.794;9.520;2023-10-09T06:54:41;13.80;98.00
4505;DHT22;2265;48.794;9.520;2023-10-09T06:57:17;13.90;98.00
4505;DHT22;2265;48.794;9.520;2023-10-09T07:00:10;14.00;98.00
4505;DHT22;2265;48.794;9.520;2023-10-09T07:03:03;14.10;98.00
4505;DHT22;2265;48.794;9.520;2023-10-09T07:05:37;14.20;98.00
4505;DHT22;2265;48.794;9.520;2023-10-09T07:08:24;14.20;98.00
4505;DHT22;2265;48.794;9.520;2023-10-09T07:11:03;14.20;98.00
4505;DHT22;2265;48.794;9.520;2023-10-09T07:13:45;14.10;98.00
4505;DHT22;2265;48.794;9.520;2023-10-09T07:16:20;14.10;98.00
4505;DHT22;2265;48.794;9.520;2023-10-09T07:18:54;14.20;98.00
4505;DHT22;2265;48.794;9.520;2023-10-09T07:21:35;14.30;98.00
4505;DHT22;2265;48.794;9.520;2023-10-09T07:24:05;14.30;98.00
4505;DHT22;2265;48.794;9.520;2023-10-09T07:26:41;14.30;98.00
4505;DHT22;2265;48.794;9.520;2023-10-09T07:29:14;14.30;98.00
4505;DHT22;2265;48.794;9.520;2023-10-09T07:31:48;14.40;98.00
4505;DHT22;2265;48.794;9.520;2023-10-09T07:34:23;14.40;98.00
4505;DHT22;2265;48.794;9.520;2023-10-09T07:37:19;14.40;98.00
4505;DHT22;2265;48.794;9.520;2023-10-09T07:39:49;14.50;98.00
4505;DHT22;2265;48.794;9.520;2023-10-09T07:42:23;14.60;98.00
4505;DHT22;2265;48.794;9.520;2023-10-09T07:45:11;14.90;98.00
4505;DHT22;2265;48.794;9.520;2023-10-09T07:47:59;15.00;98.00
4505;DHT22;2265;48.794;9.520;2023-10-09T07:50:36;15.00;98.00
4505;DHT22;2265;48.794;9.520;2023-10-09T07:53:14;15.10;98.00
4505;DHT22;2265;48.794;9.520;2023-10-09T07:55:51;15.10;98.00
4505;DHT22;2265;48.794;9.520;2023-10-09T07:58:22;15.20;98.00
4505;DHT22;2265;48.794;9.520;2023-10-09T08:00:54;15.20;98.00
4505;DHT22;2265;48.794;9.520;2023-10-09T08:03:41;15.10;98.00
4505;DHT22;2265;48.794;9.520;2023-10-09T08:06:11;15.20;98.00
4505;DHT22;2265;48.794;9.520;2023-10-09T08:08:56;15.30;98.00
4505;DHT22;2265;48.794;9.520;2023-10-09T08:11:47;15.40;98.00
4505;DHT22;2265;48.794;9.520;2023-10-09T08:14:41;15.60;98.00
4505;DHT22;2265;48.794;9.520;2023-10-09T08:17:12;15.80;98.00
4505;DHT22;2265;48.794;9.520;2023-10-09T08:19:47;15.80;98.00
4505;DHT22;2265;48.794;9.520;2023-10-09T08:22:24;15.80;98.00
4505;DHT22;2265;48.794;9.520;2023-10-09T08:25:09;15.90;98.00
4505;DHT22;2265;48.794;9.520;2023-10-09T08:27:52;15.80;98.00
4505;DHT22;2265;48.794;9.520;2023-10-09T08:30:23;15.90;98.00
4505;DHT22;2265;48.794;9.520;2023-10-09T08:33:08;15.90;98.00
4505;DHT22;2265;48.794;9.520;2023-10-09T08:35:54;15.90;98.00
4505;DHT22;2265;48.794;9.520;2023-10-09T08:38:27;16.00;98.00
4505;DHT22;2265;48.794;9.520;2023-10-09T08:41:06;16.00;98.00
4505;DHT22;2265;48.794;9.520;2023-10-09T08:43:46;16.10;98.00
4505;DHT22;2265;48.794;9.520;2023-10-09T08:46:18;16.10;98.00
4505;DHT22;2265;48.794;9.520;2023-10-09T08:48:48;16.20;98.00
4505;DHT22;2265;48.794;9.520;2023-10-09T08:51:17;16.40;98.00
4505;DHT22;2265;48.794;9.520;2023-10-09T08:53:46;16.50;98.00
4505;DHT22;2265;48.794;9.520;2023-10-09T08:56:14;16.60;98.00
4505;DHT22;2265;48.794;9.520;2023-10-09T08:58:48;16.70;98.00
4505;DHT22;2265;48.794;9.520;2023-10-09T09:01:17;16.60;98.00
4505;DHT22;2265;48.794;9.520;2023-10-09T09:03:49;16.60;98.00
4505;DHT22;2265;48.794;9.520;2023-10-09T09:06:18;16.70;98.00
4505;DHT22;2265;48.794;9.520;2023-10-09T09:08:46;16.90;98.00
4505;DHT22;2265;48.794;9.520;2023-10-09T09:11:16;17.40;98.00
4505;DHT22;2265;48.794;9.520;2023-10-09T09:14:00;17.80;98.00
4505;DHT22;2265;48.794;9.520;2023-10-09T09:16:31;18.20;98.00
4505;DHT22;2265;48.794;9.520;2023-10-09T09:19:01;18.30;98.00
4505;DHT22;2265;48.794;9.520;2023-10-09T09:21:32;18.20;98.00
4505;DHT22;2265;48.794;9.520;2023-10-09T09:24:05;18.40;98.00
4505;DHT22;2265;48.794;9.520;2023-10-09T09:26:42;18.60;98.00
4505;DHT22;2265;48.794;9.520;2023-10-09T09:29:12;18.70;98.00
4505;DHT22;2265;48.794;9.520;2023-10-09T09:31:52;18.80;98.00
4505;DHT22;2265;48.794;9.520;2023-10-09T09:34:22;18.70;98.00
4505;DHT22;2265;48.794;9.520;2023-10-09T09:36:56;18.60;98.00
4505;DHT22;2265;48.794;9.520;2023-10-09T09:39:26;18.50;98.00
4505;DHT22;2265;48.794;9.520;2023-10-09T09:41:57;18.50;98.00
4505;DHT22;2265;48.794;9.520;2023-10-09T09:44:33;18.50;98.00
4505;DHT22;2265;48.794;9.520;2023-10-09T09:47:09;18.60;98.00
4505;DHT22;2265;48.794;9.520;2023-10-09T09:49:51;18.70;98.00
4505;DHT22;2265;48.794;9.520;2023-10-09T09:52:26;18.90;98.00
4505;DHT22;2265;48.794;9.520;2023-10-09T09:55:18;19.10;98.00
4505;DHT22;2265;48.794;9.520;2023-10-09T09:57:49;19.30;98.00
4505;DHT22;2265;48.794;9.520;2023-10-09T10:00:19;19.50;98.00
4505;DHT22;2265;48.794;9.520;2023-10-09T10:02:58;19.50;98.00
4505;DHT22;2265;48.794;9.520;2023-10-09T10:05:29;19.70;98.00
4505;DHT22;2265;48.794;9.520;2023-10-09T10:07:58;19.80;98.00
4505;DHT22;2265;48.794;9.520;2023-10-09T10:10:36;20.00;98.00
4505;DHT22;2265;48.794;9.520;2023-10-09T10:13:05;20.20;98.00
4505;DHT22;2265;48.794;9.520;2023-10-09T10:15:57;20.20;98.00
4505;DHT22;2265;48.794;9.520;2023-10-09T10:18:23;20.20;98.00
4505;DHT22;2265;48.794;9.520;2023-10-09T10:23:47;20.30;98.00
4505;DHT22;2265;48.794;9.520;2023-10-09T10:26:18;20.40;98.00
4505;DHT22;2265;48.794;9.520;2023-10-09T10:29:16;20.40;98.00
4505;DHT22;2265;48.794;9.520;2023-10-09T10:31:53;20.40;98.00
4505;DHT22;2265;48.794;9.520;2023-10-09T10:34:22;20.50;98.00
4505;DHT22;2265;48.794;9.520;2023-10-09T10:36:50;20.40;98.00
4505;DHT22;2265;48.794;9.520;2023-10-09T10:39:29;20.40;98.00
4505;DHT22;2265;48.794;9.520;2023-10-09T10:42:09;20.40;98.00
4505;DHT22;2265;48.794;9.520;2023-10-09T10:44:41;20.50;98.00
4505;DHT22;2265;48.794;9.520;2023-10-09T10:47:12;20.60;98.00
4505;DHT22;2265;48.794;9.520;2023-10-09T10:49:51;20.70;98.00
4505;DHT22;2265;48.794;9.520;2023-10-09T10:52:24;20.80;98.00
4505;DHT22;2265;48.794;9.520;2023-10-09T10:55:13;20.80;98.00
4505;DHT22;2265;48.794;9.520;2023-10-09T10:58:16;20.90;98.00
4505;DHT22;2265;48.794;9.520;2023-10-09T11:00:55;20.90;98.00
4505;DHT22;2265;48.794;9.520;2023-10-09T11:03:37;20.90;98.00
4505;DHT22;2265;48.794;9.520;2023-10-09T11:06:24;20.80;98.00
4505;DHT22;2265;48.794;9.520;2023-10-09T11:09:02;20.90;98.00
4505;DHT22;2265;48.794;9.520;2023-10-09T11:11:48;21.00;98.00
4505;DHT22;2265;48.794;9.520;2023-10-09T11:14:16;21.00;98.00
4505;DHT22;2265;48.794;9.520;2023-10-09T11:16:50;21.10;98.00
4505;DHT22;2265;48.794;9.520;2023-10-09T11:19:23;21.10;98.00
4505;DHT22;2265;48.794;9.520;2023-10-09T11:21:57;21.30;98.00
4505;DHT22;2265;48.794;9.520;2023-10-09T11:24:48;21.30;98.00
4505;DHT22;2265;48.794;9.520;2023-10-09T11:27:28;21.40;98.00
4505;DHT22;2265;48.794;9.520;2023-10-09T11:29:58;21.50;98.00
4505;DHT22;2265;48.794;9.520;2023-10-09T11:32:40;21.90;98.00
4505;DHT22;2265;48.794;9.520;2023-10-09T11:35:11;22.20;98.00
4505;DHT22;2265;48.794;9.520;2023-10-09T11:37:41;22.60;98.00
4505;DHT22;2265;48.794;9.520;2023-10-09T11:40:27;22.80;98.00
4505;DHT22;2265;48.794;9.520;2023-10-09T11:43:00;22.90;98.00
4505;DHT22;2265;48.794;9.520;2023-10-09T11:45:29;22.90;98.00
4505;DHT22;2265;48.794;9.520;2023-10-09T11:48:06;22.70;98.00
4505;DHT22;2265;48.794;9.520;2023-10-09T11:50:47;22.60;98.00
4505;DHT22;2265;48.794;9.520;2023-10-09T11:53:40;22.40;98.00
4505;DHT22;2265;48.794;9.520;2023-10-09T11:56:09;22.20;98.00
4505;DHT22;2265;48.794;9.520;2023-10-09T11:58:44;22.00;98.00
4505;DHT22;2265;48.794;9.520;2023-10-09T12:01:15;21.90;98.00
4505;DHT22;2265;48.794;9.520;2023-10-09T12:03:46;21.80;98.00
4505;DHT22;2265;48.794;9.520;2023-10-09T12:06:16;21.70;98.00
4505;DHT22;2265;48.794;9.520;2023-10-09T12:08:45;21.70;98.00
4505;DHT22;2265;48.794;9.520;2023-10-09T12:11:13;21.70;98.00
4505;DHT22;2265;48.794;9.520;2023-10-09T12:13:49;21.70;98.00
4505;DHT22;2265;48.794;9.520;2023-10-09T12:16:21;21.80;98.00
4505;DHT22;2265;48.794;9.520;2023-10-09T12:18:53;21.80;98.00
4505;DHT22;2265;48.794;9.520;2023-10-09T12:21:21;21.80;98.00
4505;DHT22;2265;48.794;9.520;2023-10-09T12:23:49;21.90;98.00
4505;DHT22;2265;48.794;9.520;2023-10-09T12:26:16;21.90;98.00
4505;DHT22;2265;48.794;9.520;2023-10-09T12:28:44;22.10;98.00
4505;DHT22;2265;48.794;9.520;2023-10-09T12:31:13;22.30;98.00
4505;DHT22;2265;48.794;9.520;2023-10-09T12:33:41;22.40;98.00
4505;DHT22;2265;48.794;9.520;2023-10-09T12:36:11;22.50;98.00
4505;DHT22;2265;48.794;9.520;2023-10-09T12:38:44;22.50;98.00
4505;DHT22;2265;48.794;9.520;2023-10-09T12:41:16;22.60;98.00
4505;DHT22;2265;48.794;9.520;2023-10-09T12:43:46;22.60;98.00
4505;DHT22;2265;48.794;9.520;2023-10-09T12:46:14;22.60;98.00
4505;DHT22;2265;48.794;9.520;2023-10-09T12:48:42;22.70;98.00
4505;DHT22;2265;48.794;9.520;2023-10-09T12:51:12;22.90;98.00
4505;DHT22;2265;48.794;9.520;2023-10-09T12:53:42;23.00;98.00
4505;DHT22;2265;48.794;9.520;2023-10-09T12:56:09;23.20;98.00
4505;DHT22;2265;48.794;9.520;2023-10-09T12:58:37;23.60;98.00
4505;DHT22;2265;48.794;9.520;2023-10-09T13:01:05;23.90;98.00
4505;DHT22;2265;48.794;9.520;2023-10-09T13:03:38;24.20;98.00
4505;DHT22;2265;48.794;9.520;2023-10-09T13:06:05;24.30;98.00
4505;DHT22;2265;48.794;9.520;2023-10-09T13:08:36;24.20;98.00
4505;DHT22;2265;48.794;9.520;2023-10-09T13:11:07;24.10;98.00
4505;DHT22;2265;48.794;9.520;2023-10-09T13:13:38;24.10;98.00
4505;DHT22;2265;48.794;9.520;2023-10-09T13:16:10;24.30;98.00
4505;DHT22;2265;48.794;9.520;2023-10-09T13:18:48;24.50;98.00
4505;DHT22;2265;48.794;9.520;2023-10-09T13:21:17;24.90;98.00
4505;DHT22;2265;48.794;9.520;2023-10-09T13:23:44;25.40;98.00
4505;DHT22;2265;48.794;9.520;2023-10-09T13:26:13;26.00;98.00
4505;DHT22;2265;48.794;9.520;2023-10-09T13:28:51;26.50;97.70
4505;DHT22;2265;48.794;9.520;2023-10-09T13:31:18;26.80;94.20
4505;DHT22;2265;48.794;9.520;2023-10-09T13:33:48;27.20;94.40
4505;DHT22;2265;48.794;9.520;2023-10-09T13:36:20;27.50;93.70
4505;DHT22;2265;48.794;9.520;2023-10-09T13:38:54;27.60;93.30
4505;DHT22;2265;48.794;9.520;2023-10-09T13:41:24;27.90;92.30
4505;DHT22;2265;48.794;9.520;2023-10-09T13:43:55;27.90;93.00
4505;DHT22;2265;48.794;9.520;2023-10-09T13:46:23;28.10;90.70
4505;DHT22;2265;48.794;9.520;2023-10-09T13:48:52;28.30;90.50
4505;DHT22;2265;48.794;9.520;2023-10-09T13:51:20;28.50;88.80
4505;DHT22;2265;48.794;9.520;2023-10-09T13:53:49;28.80;87.50
4505;DHT22;2265;48.794;9.520;2023-10-09T13:56:17;29.00;82.20
4505;DHT22;2265;48.794;9.520;2023-10-09T13:58:46;28.90;81.60
4505;DHT22;2265;48.794;9.520;2023-10-09T14:01:13;28.50;79.60
4505;DHT22;2265;48.794;9.520;2023-10-09T14:03:54;28.20;82.90
4505;DHT22;2265;48.794;9.520;2023-10-09T14:06:21;27.80;81.90
4505;DHT22;2265;48.794;9.520;2023-10-09T14:09:03;27.50;81.70
4505;DHT22;2265;48.794;9.520;2023-10-09T14:11:31;27.10;81.90
4505;DHT22;2265;48.794;9.520;2023-10-09T14:13:58;26.90;84.00
4505;DHT22;2265;48.794;9.520;2023-10-09T14:16:27;26.60;85.40
4505;DHT22;2265;48.794;9.520;2023-10-09T14:18:56;26.50;86.40
4505;DHT22;2265;48.794;9.520;2023-10-09T14:21:25;26.30;88.00
4505;DHT22;2265;48.794;9.520;2023-10-09T14:23:56;26.00;87.90
4505;DHT22;2265;48.794;9.520;2023-10-09T14:26:26;25.90;93.10
4505;DHT22;2265;48.794;9.520;2023-10-09T14:28:53;25.70;91.00
4505;DHT22;2265;48.794;9.520;2023-10-09T14:31:23;25.40;93.80
4505;DHT22;2265;48.794;9.520;2023-10-09T14:33:55;25.30;96.00
4505;DHT22;2265;48.794;9.520;2023-10-09T14:36:23;25.10;96.20
4505;DHT22;2265;48.794;9.520;2023-10-09T14:38:59;25.00;97.80
4505;DHT22;2265;48.794;9.520;2023-10-09T14:41:28;24.90;97.90
4505;DHT22;2265;48.794;9.520;2023-10-09T14:43:59;24.80;98.00
4505;DHT22;2265;48.794;9.520;2023-10-09T14:46:26;24.80;98.00
4505;DHT22;2265;48.794;9.520;2023-10-09T14:48:55;24.70;98.00
4505;DHT22;2265;48.794;9.520;2023-10-09T14:51:23;24.50;98.00
4505;DHT22;2265;48.794;9.520;2023-10-09T14:53:54;24.30;98.00
4505;DHT22;2265;48.794;9.520;2023-10-09T14:56:24;24.10;98.00
4505;DHT22;2265;48.794;9.520;2023-10-09T14:58:55;23.90;98.00
4505;DHT22;2265;48.794;9.520;2023-10-09T15:01:24;23.70;98.00
4505;DHT22;2265;48.794;9.520;2023-10-09T15:03:57;23.60;98.00
4505;DHT22;2265;48.794;9.520;2023-10-09T15:06:26;23.40;98.00
4505;DHT22;2265;48.794;9.520;2023-10-09T15:08:56;23.30;98.00
4505;DHT22;2265;48.794;9.520;2023-10-09T15:11:23;23.10;98.00
4505;DHT22;2265;48.794;9.520;2023-10-09T15:13:51;23.00;98.00
4505;DHT22;2265;48.794;9.520;2023-10-09T15:16:19;22.90;98.00
4505;DHT22;2265;48.794;9.520;2023-10-09T15:18:53;22.90;98.00
4505;DHT22;2265;48.794;9.520;2023-10-09T15:21:24;22.90;98.00
4505;DHT22;2265;48.794;9.520;2023-10-09T15:23:53;22.90;98.00
4505;DHT22;2265;48.794;9.520;2023-10-09T15:26:21;22.90;98.00
4505;DHT22;2265;48.794;9.520;2023-10-09T15:28:50;23.00;98.00
4505;DHT22;2265;48.794;9.520;2023-10-09T15:31:17;23.00;98.00
4505;DHT22;2265;48.794;9.520;2023-10-09T15:33:46;22.90;98.00
4505;DHT22;2265;48.794;9.520;2023-10-09T15:36:17;22.70;98.00
4505;DHT22;2265;48.794;9.520;2023-10-09T15:38:47;22.70;98.00
4505;DHT22;2265;48.794;9.520;2023-10-09T15:41:15;22.40;98.00
4505;DHT22;2265;48.794;9.520;2023-10-09T15:43:43;22.40;98.00
4505;DHT22;2265;48.794;9.520;2023-10-09T15:46:13;22.30;98.00
4505;DHT22;2265;48.794;9.520;2023-10-09T15:48:41;22.10;98.00
4505;DHT22;2265;48.794;9.520;2023-10-09T15:51:10;22.10;98.00
4505;DHT22;2265;48.794;9.520;2023-10-09T15:53:40;22.10;98.00
4505;DHT22;2265;48.794;9.520;2023-10-09T15:56:09;21.90;98.00
4505;DHT22;2265;48.794;9.520;2023-10-09T15:58:38;21.90;98.00
4505;DHT22;2265;48.794;9.520;2023-10-09T16:01:10;21.80;98.00
4505;DHT22;2265;48.794;9.520;2023-10-09T16:03:40;21.80;98.00
4505;DHT22;2265;48.794;9.520;2023-10-09T16:06:08;21.70;98.00
4505;DHT22;2265;48.794;9.520;2023-10-09T16:08:38;21.60;98.00
4505;DHT22;2265;48.794;9.520;2023-10-09T16:11:05;21.60;98.00
4505;DHT22;2265;48.794;9.520;2023-10-09T16:13:34;21.50;98.00
4505;DHT22;2265;48.794;9.520;2023-10-09T16:16:04;21.30;98.00
4505;DHT22;2265;48.794;9.520;2023-10-09T16:18:34;21.30;98.00
4505;DHT22;2265;48.794;9.520;2023-10-09T16:21:01;21.20;98.00
4505;DHT22;2265;48.794;9.520;2023-10-09T16:23:30;21.10;98.00
4505;DHT22;2265;48.794;9.520;2023-10-09T16:25:58;21.00;98.00
4505;DHT22;2265;48.794;9.520;2023-10-09T16:28:26;20.80;98.00
4505;DHT22;2265;48.794;9.520;2023-10-09T16:30:55;20.60;98.00
4505;DHT22;2265;48.794;9.520;2023-10-09T16:33:23;20.60;98.00
4505;DHT22;2265;48.794;9.520;2023-10-09T16:35:51;20.30;98.00
4505;DHT22;2265;48.794;9.520;2023-10-09T16:38:20;20.10;98.00
4505;DHT22;2265;48.794;9.520;2023-10-09T16:40:53;20.00;98.00
4505;DHT22;2265;48.794;9.520;2023-10-09T16:43:23;19.90;98.00
4505;DHT22;2265;48.794;9.520;2023-10-09T16:45:54;19.80;98.00
4505;DHT22;2265;48.794;9.520;2023-10-09T16:48:25;19.70;98.00
4505;DHT22;2265;48.794;9.520;2023-10-09T16:50:54;19.50;98.00